createdAt,value
2018-06-10T00:01:02.273Z,17.88
2018-06-10T00:02:10.642Z,17.77
2018-06-10T00:03:16.857Z,17.64
2018-06-10T00:04:22.669Z,17.53
2018-06-10T00:05:28.516Z,17.51
2018-06-10T00:06:35.280Z,17.44
2018-06-10T00:07:40.051Z,17.27
2018-06-10T00:08:47.297Z,17.22
2018-06-10T00:09:52.689Z,17.26
2018-06-10T00:10:59.960Z,17.27
2018-06-10T00:12:07.685Z,17.25
2018-06-10T00:13:16.259Z,17.16
2018-06-10T00:15:35.077Z,17.23
2018-06-10T00:16:42.370Z,17.17
2018-06-10T00:17:50.096Z,17.05
2018-06-10T00:18:59.141Z,17.03
2018-06-10T00:20:10.498Z,16.96
2018-06-10T00:21:16.185Z,16.86
2018-06-10T00:22:23.200Z,16.83
2018-06-10T00:23:30.751Z,16.86
2018-06-10T00:24:40.611Z,16.90
2018-06-10T00:25:48.645Z,16.98
2018-06-10T00:27:01.321Z,17.05
2018-06-10T00:28:09.611Z,17.15
2018-06-10T00:29:19.848Z,17.24
2018-06-10T00:30:24.719Z,17.23
2018-06-10T00:31:39.503Z,17.25
2018-06-10T00:32:47.549Z,17.26
2018-06-10T00:33:53.349Z,17.28
2018-06-10T00:34:58.868Z,17.29
2018-06-10T00:36:04.303Z,17.31
2018-06-10T00:37:09.595Z,17.30
2018-06-10T00:38:16.660Z,17.30
2018-06-10T00:39:23.231Z,17.30
2018-06-10T00:40:32.239Z,17.33
2018-06-10T00:41:38.179Z,17.35
2018-06-10T00:42:45.390Z,17.34
2018-06-10T00:43:50.142Z,17.40
2018-06-10T00:44:55.397Z,17.45
2018-06-10T00:46:01.948Z,17.50
2018-06-10T00:47:08.020Z,17.52
2018-06-10T00:48:16.405Z,17.52
2018-06-10T00:49:21.207Z,17.54
2018-06-10T00:50:27.501Z,17.50
2018-06-10T00:51:32.443Z,17.49
2018-06-10T00:52:37.166Z,17.51
2018-06-10T00:53:41.840Z,17.50
2018-06-10T00:54:46.548Z,17.50
2018-06-10T00:55:52.703Z,17.51
2018-06-10T00:56:57.411Z,17.48
2018-06-10T00:58:03.393Z,17.39
2018-06-10T00:59:10.074Z,17.28
2018-06-10T01:00:14.781Z,17.26
2018-06-10T01:01:19.563Z,17.26
2018-06-10T01:02:24.269Z,17.25
2018-06-10T01:03:29.587Z,17.24
2018-06-10T01:04:34.653Z,17.21
2018-06-10T01:05:39.374Z,17.14
2018-06-10T01:06:44.379Z,17.17
2018-06-10T01:07:52.800Z,17.18
2018-06-10T01:08:57.655Z,17.22
2018-06-10T01:10:04.285Z,17.29
2018-06-10T01:11:10.156Z,17.36
2018-06-10T01:12:14.949Z,17.40
2018-06-10T01:13:20.148Z,17.42
2018-06-10T01:14:24.890Z,17.47
2018-06-10T01:15:29.809Z,17.46
2018-06-10T01:16:35.119Z,17.48
2018-06-10T01:17:39.850Z,17.48
2018-06-10T01:18:45.507Z,17.50
2018-06-10T01:19:51.854Z,17.51
2018-06-10T01:20:56.573Z,17.52
2018-06-10T01:22:01.315Z,17.49
2018-06-10T01:23:06.033Z,17.47
2018-06-10T01:24:10.765Z,17.51
2018-06-10T01:25:17.152Z,17.50
2018-06-10T01:26:26.744Z,17.52
2018-06-10T01:27:31.555Z,17.56
2018-06-10T01:28:36.564Z,17.55
2018-06-10T01:29:41.310Z,17.58
2018-06-10T01:30:46.039Z,17.56
2018-06-10T01:31:50.760Z,17.50
2018-06-10T01:32:56.139Z,17.46
2018-06-10T01:34:01.653Z,17.47
2018-06-10T01:35:06.655Z,17.50
2018-06-10T01:36:12.238Z,17.52
2018-06-10T01:37:16.991Z,17.47
2018-06-10T01:38:23.361Z,17.48
2018-06-10T01:39:28.692Z,17.52
2018-06-10T01:40:33.852Z,17.59
2018-06-10T01:41:38.880Z,17.63
2018-06-10T01:42:43.609Z,17.68
2018-06-10T01:43:48.381Z,17.69
2018-06-10T01:44:53.093Z,17.68
2018-06-10T01:45:58.818Z,17.64
2018-06-10T01:47:03.605Z,17.61
2018-06-10T01:48:08.650Z,17.67
2018-06-10T01:49:13.364Z,17.72
2018-06-10T01:50:18.116Z,17.73
2018-06-10T01:51:22.889Z,17.65
2018-06-10T01:52:27.661Z,17.58
2018-06-10T01:53:34.613Z,17.51
2018-06-10T01:54:39.874Z,17.44
2018-06-10T01:55:46.066Z,17.36
2018-06-10T01:56:52.241Z,17.31
2018-06-10T01:57:56.982Z,17.30
2018-06-10T01:59:02.465Z,17.32
2018-06-10T02:00:08.342Z,17.28
2018-06-10T02:01:13.937Z,17.27
2018-06-10T02:02:19.227Z,17.22
2018-06-10T02:03:27.959Z,17.22
2018-06-10T02:04:33.304Z,17.12
2018-06-10T02:05:39.304Z,17.01
2018-06-10T02:06:45.116Z,17.01
2018-06-10T02:07:50.761Z,17.09
2018-06-10T02:08:57.405Z,17.06
2018-06-10T02:10:04.501Z,17.12
2018-06-10T02:11:10.494Z,17.08
2018-06-10T02:12:16.480Z,17.08
2018-06-10T02:13:22.328Z,17.11
2018-06-10T02:14:27.309Z,17.12
2018-06-10T02:15:32.033Z,17.06
2018-06-10T02:16:37.709Z,17.06
2018-06-10T02:17:42.422Z,17.08
2018-06-10T02:18:47.103Z,17.11
2018-06-10T02:19:52.162Z,17.14
2018-06-10T02:20:56.841Z,17.16
2018-06-10T02:22:02.753Z,17.18
2018-06-10T02:23:07.775Z,17.17
2018-06-10T02:24:13.352Z,17.15
2018-06-10T02:25:18.174Z,17.13
2018-06-10T02:26:23.149Z,17.14
2018-06-10T02:27:27.813Z,17.12
2018-06-10T02:28:32.448Z,17.16
2018-06-10T02:29:37.074Z,17.14
2018-06-10T02:30:43.345Z,17.20
2018-06-10T02:31:49.380Z,17.22
2018-06-10T02:32:54.226Z,17.18
2018-06-10T02:33:59.360Z,17.21
2018-06-10T02:35:05.578Z,17.19
2018-06-10T02:36:10.242Z,17.15
2018-06-10T02:37:14.860Z,17.10
2018-06-10T02:38:19.489Z,16.99
2018-06-10T02:39:28.543Z,16.95
2018-06-10T02:40:33.296Z,16.97
2018-06-10T02:41:37.965Z,16.98
2018-06-10T02:42:44.712Z,16.91
2018-06-10T02:43:51.052Z,16.92
2018-06-10T02:44:56.523Z,16.92
2018-06-10T02:46:01.428Z,16.92
2018-06-10T02:47:06.086Z,16.80
2018-06-10T02:48:11.412Z,16.73
2018-06-10T02:49:16.045Z,16.75
2018-06-10T02:50:25.130Z,16.75
2018-06-10T02:51:29.772Z,16.77
2018-06-10T02:52:34.416Z,16.77
2018-06-10T02:53:42.445Z,16.76
2018-06-10T02:54:47.122Z,16.80
2018-06-10T02:55:51.746Z,16.82
2018-06-10T02:56:56.394Z,16.88
2018-06-10T02:58:01.755Z,16.96
2018-06-10T02:59:06.378Z,16.98
2018-06-10T03:00:10.998Z,17.01
2018-06-10T03:01:15.643Z,17.00
2018-06-10T03:02:20.315Z,17.03
2018-06-10T03:03:25.062Z,17.04
2018-06-10T03:04:29.939Z,17.02
2018-06-10T03:05:35.341Z,16.99
2018-06-10T03:06:39.926Z,17.00
2018-06-10T03:07:45.423Z,16.93
2018-06-10T03:08:50.091Z,16.97
2018-06-10T03:09:55.693Z,16.93
2018-06-10T03:11:00.861Z,16.91
2018-06-10T03:12:05.533Z,16.94
2018-06-10T03:13:10.257Z,16.95
2018-06-10T03:14:14.774Z,16.97
2018-06-10T03:15:19.321Z,16.86
2018-06-10T03:16:23.819Z,16.85
2018-06-10T03:17:29.246Z,16.84
2018-06-10T03:18:33.757Z,16.83
2018-06-10T03:19:38.418Z,16.80
2018-06-10T03:20:42.964Z,16.81
2018-06-10T03:21:47.455Z,16.84
2018-06-10T03:22:53.071Z,16.85
2018-06-10T03:23:58.059Z,16.88
2018-06-10T03:25:03.337Z,16.90
2018-06-10T03:26:08.048Z,16.89
2018-06-10T03:27:15.689Z,16.96
2018-06-10T03:28:20.405Z,16.97
2018-06-10T03:29:28.633Z,17.02
2018-06-10T03:30:34.319Z,17.07
2018-06-10T03:31:39.131Z,17.13
2018-06-10T03:32:43.787Z,17.18
2018-06-10T03:33:48.548Z,17.21
2018-06-10T03:34:53.926Z,17.21
2018-06-10T03:35:58.722Z,17.18
2018-06-10T03:37:06.337Z,17.02
2018-06-10T03:38:10.951Z,16.99
2018-06-10T03:39:15.565Z,17.05
2018-06-10T03:40:20.229Z,17.10
2018-06-10T03:41:24.921Z,17.14
2018-06-10T03:42:30.263Z,17.12
2018-06-10T03:43:35.269Z,17.14
2018-06-10T03:44:39.860Z,17.16
2018-06-10T03:45:45.480Z,17.12
2018-06-10T03:46:50.023Z,17.12
2018-06-10T03:47:54.577Z,17.12
2018-06-10T03:48:59.087Z,17.11
2018-06-10T03:50:03.954Z,17.13
2018-06-10T03:51:08.493Z,17.14
2018-06-10T03:52:13.396Z,17.17
2018-06-10T03:53:17.955Z,17.17
2018-06-10T03:54:23.059Z,17.19
2018-06-10T03:55:28.292Z,17.22
2018-06-10T03:56:33.081Z,17.19
2018-06-10T03:57:37.605Z,17.21
2018-06-10T03:58:42.136Z,17.11
2018-06-10T03:59:47.302Z,17.12
2018-06-10T04:00:51.787Z,17.17
2018-06-10T04:01:56.279Z,17.14
2018-06-10T04:03:01.057Z,17.11
2018-06-10T04:04:05.541Z,17.11
2018-06-10T04:05:10.050Z,17.12
2018-06-10T04:06:15.181Z,17.09
2018-06-10T04:07:20.129Z,17.04
2018-06-10T04:08:24.640Z,17.04
2018-06-10T04:09:29.462Z,17.02
2018-06-10T04:10:33.988Z,17.10
2018-06-10T04:11:38.672Z,17.19
2018-06-10T04:12:45.213Z,17.24
2018-06-10T04:13:51.197Z,17.26
2018-06-10T04:14:56.656Z,17.30
2018-06-10T04:16:01.558Z,17.31
2018-06-10T04:17:06.511Z,17.34
2018-06-10T04:18:11.882Z,17.35
2018-06-10T04:19:17.335Z,17.39
2018-06-10T04:20:21.960Z,17.38
2018-06-10T04:21:26.610Z,17.34
2018-06-10T04:22:32.468Z,17.27
2018-06-10T04:23:37.080Z,17.27
2018-06-10T04:24:42.365Z,17.33
2018-06-10T04:25:46.977Z,17.39
2018-06-10T04:26:52.358Z,17.31
2018-06-10T04:27:57.297Z,17.27
2018-06-10T04:29:01.949Z,17.19
2018-06-10T04:30:06.828Z,17.23
2018-06-10T04:31:11.434Z,17.30
2018-06-10T04:32:15.973Z,17.31
2018-06-10T04:33:20.442Z,17.33
2018-06-10T04:34:29.732Z,17.37
2018-06-10T04:35:34.570Z,17.40
2018-06-10T04:36:42.188Z,17.41
2018-06-10T04:37:46.739Z,17.44
2018-06-10T04:38:51.278Z,17.45
2018-06-10T04:39:55.902Z,17.45
2018-06-10T04:41:00.860Z,17.42
2018-06-10T04:42:05.498Z,17.42
2018-06-10T04:43:11.079Z,17.47
2018-06-10T04:44:16.286Z,17.44
2018-06-10T04:45:21.168Z,17.43
2018-06-10T04:46:25.802Z,17.42
2018-06-10T04:47:31.992Z,17.47
2018-06-10T04:48:36.626Z,17.45
2018-06-10T04:49:41.289Z,17.50
2018-06-10T04:50:45.994Z,17.55
2018-06-10T04:51:50.635Z,17.57
2018-06-10T04:52:55.325Z,17.52
2018-06-10T04:54:00.273Z,17.39
2018-06-10T04:55:04.922Z,17.27
2018-06-10T04:56:10.408Z,17.16
2018-06-10T04:57:15.201Z,16.95
2018-06-10T04:58:20.799Z,16.84
2018-06-10T04:59:26.974Z,16.82
2018-06-10T05:00:32.766Z,16.79
2018-06-10T05:01:38.525Z,16.78
2018-06-10T05:02:43.139Z,16.86
2018-06-10T05:03:47.746Z,16.77
2018-06-10T05:04:52.516Z,16.78
2018-06-10T05:05:58.019Z,16.74
2018-06-10T05:07:02.983Z,16.72
2018-06-10T05:08:07.597Z,16.71
2018-06-10T05:09:12.894Z,16.71
2018-06-10T05:10:17.581Z,16.77
2018-06-10T05:11:22.236Z,16.80
2018-06-10T05:12:27.414Z,16.82
2018-06-10T05:13:32.560Z,16.69
2018-06-10T05:14:37.144Z,16.62
2018-06-10T05:15:41.707Z,16.62
2018-06-10T05:16:46.230Z,16.63
2018-06-10T05:17:50.781Z,16.69
2018-06-10T05:18:56.038Z,16.75
2018-06-10T05:20:00.910Z,16.86
2018-06-10T05:21:05.515Z,16.97
2018-06-10T05:22:10.085Z,17.02
2018-06-10T05:23:15.526Z,17.07
2018-06-10T05:24:20.071Z,17.01
2018-06-10T05:25:24.637Z,16.99
2018-06-10T05:26:29.431Z,17.00
2018-06-10T05:27:33.962Z,17.03
2018-06-10T05:28:39.033Z,17.01
2018-06-10T05:29:43.685Z,17.06
2018-06-10T05:30:48.598Z,17.11
2018-06-10T05:31:54.020Z,17.20
2018-06-10T05:32:59.217Z,17.25
2018-06-10T05:34:04.215Z,17.29
2018-06-10T05:35:08.882Z,17.32
2018-06-10T05:36:13.529Z,17.43
2018-06-10T05:37:18.156Z,17.52
2018-06-10T05:38:25.071Z,17.52
2018-06-10T05:39:30.076Z,17.53
2018-06-10T05:40:36.320Z,17.35
2018-06-10T05:41:40.994Z,17.35
2018-06-10T05:42:46.431Z,17.45
2018-06-10T05:43:52.793Z,17.55
2018-06-10T05:45:00.982Z,17.65
2018-06-10T05:46:06.089Z,17.75
2018-06-10T05:47:10.747Z,17.84
2018-06-10T05:48:16.511Z,17.89
2018-06-10T05:49:22.492Z,17.95
2018-06-10T05:50:28.471Z,17.97
2018-06-10T05:51:34.363Z,18.09
2018-06-10T05:52:47.395Z,18.17
2018-06-10T05:53:53.778Z,18.18
2018-06-10T05:54:58.462Z,18.22
2018-06-10T05:56:03.682Z,18.26
2018-06-10T05:57:11.498Z,18.26
2018-06-10T05:58:17.639Z,18.30
2018-06-10T05:59:25.233Z,18.35
2018-06-10T06:00:35.097Z,18.44
2018-06-10T06:01:41.449Z,18.48
2018-06-10T06:02:47.352Z,18.45
2018-06-10T06:03:52.177Z,18.48
2018-06-10T06:04:58.024Z,18.57
2018-06-10T06:06:03.184Z,18.61
2018-06-10T06:07:09.201Z,18.62
2018-06-10T06:08:14.247Z,18.67
2018-06-10T06:09:19.886Z,18.69
2018-06-10T06:10:26.473Z,18.70
2018-06-10T06:11:32.849Z,18.68
2018-06-10T06:12:39.149Z,18.61
2018-06-10T06:13:44.429Z,18.57
2018-06-10T06:14:49.880Z,18.65
2018-06-10T06:15:54.373Z,18.73
2018-06-10T06:16:58.890Z,18.79
2018-06-10T06:18:08.211Z,18.87
2018-06-10T06:19:13.018Z,18.88
2018-06-10T06:20:17.712Z,18.92
2018-06-10T06:21:22.325Z,18.78
2018-06-10T06:22:26.972Z,18.57
2018-06-10T06:23:31.616Z,18.66
2018-06-10T06:24:37.005Z,18.77
2018-06-10T06:25:42.670Z,18.90
2018-06-10T06:26:47.326Z,19.01
2018-06-10T06:27:51.969Z,18.98
2018-06-10T06:28:56.608Z,19.07
2018-06-10T06:30:03.164Z,19.13
2018-06-10T06:31:09.808Z,19.21
2018-06-10T06:32:14.455Z,19.27
2018-06-10T06:33:23.534Z,19.22
2018-06-10T06:34:28.056Z,19.30
2018-06-10T06:35:33.448Z,19.33
2018-06-10T06:36:39.376Z,19.37
2018-06-10T06:37:44.284Z,19.47
2018-06-10T06:38:51.101Z,19.54
2018-06-10T06:39:55.768Z,19.58
2018-06-10T06:41:00.438Z,19.66
2018-06-10T06:42:05.060Z,19.60
2018-06-10T06:43:09.747Z,19.61
2018-06-10T06:44:14.682Z,19.67
2018-06-10T06:45:19.299Z,19.62
2018-06-10T06:46:23.928Z,19.57
2018-06-10T06:47:28.560Z,19.68
2018-06-10T06:48:34.413Z,19.64
2018-06-10T06:49:39.083Z,19.69
2018-06-10T06:50:44.068Z,19.61
2018-06-10T06:51:49.288Z,19.72
2018-06-10T06:52:54.357Z,19.78
2018-06-10T06:53:58.973Z,19.75
2018-06-10T06:55:03.619Z,19.77
2018-06-10T06:56:11.956Z,19.76
2018-06-10T06:57:16.768Z,19.72
2018-06-10T06:58:21.544Z,19.68
2018-06-10T06:59:27.897Z,19.66
2018-06-10T07:00:32.418Z,19.61
2018-06-10T07:01:36.937Z,19.63
2018-06-10T07:02:41.456Z,19.80
2018-06-10T07:03:46.289Z,19.92
2018-06-10T07:04:51.144Z,19.99
2018-06-10T07:05:55.678Z,20.00
2018-06-10T07:07:00.749Z,19.68
2018-06-10T07:08:05.605Z,19.80
2018-06-10T07:09:10.459Z,19.92
2018-06-10T07:10:15.738Z,20.04
2018-06-10T07:11:20.320Z,20.07
2018-06-10T07:12:24.853Z,20.03
2018-06-10T07:13:30.096Z,20.12
2018-06-10T07:14:34.645Z,20.35
2018-06-10T07:15:39.902Z,20.43
2018-06-10T07:16:45.841Z,20.63
2018-06-10T07:17:52.911Z,20.84
2018-06-10T07:18:57.578Z,20.72
2018-06-10T07:20:02.330Z,20.58
2018-06-10T07:21:07.725Z,20.75
2018-06-10T07:22:13.641Z,20.95
2018-06-10T07:23:18.610Z,21.14
2018-06-10T07:24:25.290Z,21.44
2018-06-10T07:25:29.984Z,21.77
2018-06-10T07:26:35.324Z,21.75
2018-06-10T07:27:41.249Z,21.56
2018-06-10T07:28:47.611Z,21.51
2018-06-10T07:29:52.274Z,21.47
2018-06-10T07:30:56.905Z,21.55
2018-06-10T07:32:02.072Z,21.43
2018-06-10T07:33:08.235Z,21.44
2018-06-10T07:34:15.459Z,21.66
2018-06-10T07:35:21.248Z,21.62
2018-06-10T07:36:26.795Z,21.58
2018-06-10T07:37:32.488Z,21.61
2018-06-10T07:38:37.009Z,21.93
2018-06-10T07:39:41.579Z,21.59
2018-06-10T07:40:46.344Z,21.80
2018-06-10T07:41:52.229Z,21.73
2018-06-10T07:42:56.801Z,21.43
2018-06-10T07:44:01.440Z,21.46
2018-06-10T07:45:07.781Z,21.21
2018-06-10T07:46:13.232Z,20.85
2018-06-10T07:47:17.749Z,20.73
2018-06-10T07:48:22.822Z,20.71
2018-06-10T07:49:28.069Z,20.97
2018-06-10T07:50:33.718Z,21.18
2018-06-10T07:51:38.386Z,21.21
2018-06-10T07:52:43.048Z,21.28
2018-06-10T07:53:47.676Z,21.22
2018-06-10T07:54:53.145Z,21.12
2018-06-10T07:55:57.796Z,21.15
2018-06-10T07:57:03.225Z,21.26
2018-06-10T07:58:08.574Z,21.24
2018-06-10T07:59:15.306Z,21.24
2018-06-10T08:00:21.589Z,21.17
2018-06-10T08:01:28.728Z,20.93
2018-06-10T08:02:33.949Z,21.26
2018-06-10T08:03:39.112Z,21.63
2018-06-10T08:04:43.865Z,21.98
2018-06-10T08:05:48.619Z,22.23
2018-06-10T08:06:53.594Z,22.38
2018-06-10T08:07:58.232Z,22.46
2018-06-10T08:09:04.566Z,22.40
2018-06-10T08:10:11.387Z,22.21
2018-06-10T08:11:16.378Z,21.92
2018-06-10T08:12:21.167Z,21.85
2018-06-10T08:14:30.058Z,21.40
2018-06-10T08:15:35.131Z,21.13
2018-06-10T08:16:40.356Z,21.07
2018-06-10T08:17:50.474Z,20.97
2018-06-10T08:18:55.664Z,21.23
2018-06-10T08:20:00.356Z,21.46
2018-06-10T08:21:04.985Z,21.93
2018-06-10T08:22:10.537Z,22.17
2018-06-10T08:23:15.121Z,22.12
2018-06-10T08:24:19.653Z,22.31
2018-06-10T08:25:25.132Z,22.34
2018-06-10T08:26:29.847Z,22.65
2018-06-10T08:27:34.419Z,22.84
2018-06-10T08:28:38.980Z,22.52
2018-06-10T08:29:43.540Z,22.42
2018-06-10T08:30:48.062Z,22.08
2018-06-10T08:31:53.737Z,22.25
2018-06-10T08:32:58.885Z,22.40
2018-06-10T08:34:03.461Z,22.44
2018-06-10T08:35:08.005Z,22.76
2018-06-10T08:36:12.516Z,23.06
2018-06-10T08:37:17.093Z,23.14
2018-06-10T08:38:22.130Z,23.03
2018-06-10T08:39:29.323Z,23.31
2018-06-10T08:40:33.815Z,22.93
2018-06-10T08:41:38.541Z,22.81
2018-06-10T08:42:43.781Z,22.67
2018-06-10T08:43:48.333Z,22.57
2018-06-10T08:44:53.222Z,22.48
2018-06-10T08:45:58.803Z,22.79
2018-06-10T08:47:03.369Z,22.98
2018-06-10T08:48:08.139Z,23.42
2018-06-10T08:49:12.660Z,23.60
2018-06-10T08:50:17.246Z,23.90
2018-06-10T08:51:22.994Z,24.11
2018-06-10T08:52:27.545Z,24.08
2018-06-10T08:53:33.099Z,23.93
2018-06-10T08:54:39.954Z,23.86
2018-06-10T08:55:46.402Z,23.62
2018-06-10T08:56:54.214Z,23.42
2018-06-10T08:58:00.608Z,23.36
2018-06-10T08:59:06.288Z,23.40
2018-06-10T09:00:11.758Z,23.09
2018-06-10T09:01:16.824Z,22.63
2018-06-10T09:02:22.801Z,22.70
2018-06-10T09:03:29.319Z,22.95
2018-06-10T09:04:35.798Z,22.89
2018-06-10T09:05:40.487Z,23.03
2018-06-10T09:06:48.687Z,23.11
2018-06-10T09:07:57.292Z,23.34
2018-06-10T09:09:02.280Z,23.31
2018-06-10T09:10:07.688Z,23.42
2018-06-10T09:11:14.273Z,23.62
2018-06-10T09:12:18.936Z,23.75
2018-06-10T09:13:25.031Z,23.95
2018-06-10T09:14:29.734Z,24.15
2018-06-10T09:15:34.471Z,24.21
2018-06-10T09:16:39.297Z,24.37
2018-06-10T09:17:44.538Z,24.27
2018-06-10T09:18:49.984Z,23.73
2018-06-10T09:19:54.607Z,23.04
2018-06-10T09:21:01.745Z,23.05
2018-06-10T09:22:06.490Z,23.27
2018-06-10T09:23:12.329Z,23.62
2018-06-10T09:24:19.030Z,23.90
2018-06-10T09:25:24.609Z,24.08
2018-06-10T09:26:29.359Z,24.07
2018-06-10T09:27:34.369Z,24.16
2018-06-10T09:28:43.252Z,23.82
2018-06-10T09:29:49.669Z,23.37
2018-06-10T09:30:56.507Z,23.52
2018-06-10T09:32:04.117Z,23.49
2018-06-10T09:33:09.509Z,23.42
2018-06-10T09:34:14.338Z,23.71
2018-06-10T09:35:19.667Z,23.57
2018-06-10T09:36:24.209Z,23.64
2018-06-10T09:37:31.758Z,23.43
2018-06-10T09:38:38.400Z,23.44
2018-06-10T09:39:43.115Z,23.27
2018-06-10T09:40:47.749Z,23.13
2018-06-10T09:41:52.506Z,23.12
2018-06-10T09:43:02.788Z,23.07
2018-06-10T09:44:07.681Z,23.14
2018-06-10T09:45:12.556Z,23.54
2018-06-10T09:46:18.736Z,23.82
2018-06-10T09:47:25.052Z,23.33
2018-06-10T09:48:29.655Z,23.01
2018-06-10T09:49:36.768Z,23.13
2018-06-10T09:50:55.156Z,23.17
2018-06-10T09:52:00.020Z,23.34
2018-06-10T09:53:06.879Z,23.61
2018-06-10T09:54:12.704Z,23.82
2018-06-10T09:55:20.955Z,23.68
2018-06-10T09:56:25.840Z,23.58
2018-06-10T09:57:30.619Z,23.65
2018-06-10T09:58:36.503Z,23.73
2018-06-10T09:59:41.882Z,23.82
2018-06-10T10:00:49.223Z,23.83
2018-06-10T10:02:00.302Z,23.32
2018-06-10T10:03:05.684Z,22.81
2018-06-10T10:04:10.713Z,22.93
2018-06-10T10:05:20.073Z,22.98
2018-06-10T10:06:24.751Z,22.65
2018-06-10T10:07:29.511Z,22.58
2018-06-10T10:08:34.181Z,22.37
2018-06-10T10:09:40.298Z,21.98
2018-06-10T10:10:44.963Z,21.83
2018-06-10T10:11:49.650Z,22.11
2018-06-10T10:12:54.711Z,22.56
2018-06-10T10:13:59.654Z,23.15
2018-06-10T10:15:04.272Z,23.65
2018-06-10T10:16:09.773Z,24.13
2018-06-10T10:17:14.312Z,24.35
2018-06-10T10:18:19.705Z,24.51
2018-06-10T10:19:24.944Z,24.67
2018-06-10T10:20:30.799Z,24.97
2018-06-10T10:21:35.500Z,25.08
2018-06-10T10:22:40.992Z,24.89
2018-06-10T10:23:46.270Z,24.97
2018-06-10T10:24:50.956Z,24.39
2018-06-10T10:25:55.474Z,23.39
2018-06-10T10:27:00.502Z,23.16
2018-06-10T10:28:05.437Z,23.66
2018-06-10T10:29:15.115Z,23.50
2018-06-10T10:30:21.214Z,23.51
2018-06-10T10:31:27.094Z,23.74
2018-06-10T10:32:31.798Z,23.32
2018-06-10T10:33:41.800Z,23.53
2018-06-10T10:34:47.605Z,23.64
2018-06-10T10:35:53.319Z,23.72
2018-06-10T10:37:01.003Z,23.28
2018-06-10T10:38:06.452Z,22.15
2018-06-10T10:39:12.072Z,21.75
2018-06-10T10:40:17.492Z,21.76
2018-06-10T10:41:22.536Z,21.63
2018-06-10T10:42:27.992Z,21.77
2018-06-10T10:43:32.638Z,21.89
2018-06-10T10:44:39.102Z,22.07
2018-06-10T10:45:44.084Z,21.86
2018-06-10T10:46:49.794Z,21.69
2018-06-10T10:47:54.614Z,21.85
2018-06-10T10:49:00.020Z,22.10
2018-06-10T10:50:06.371Z,22.41
2018-06-10T10:51:12.110Z,22.44
2018-06-10T10:52:18.506Z,23.02
2018-06-10T10:53:23.784Z,23.33
2018-06-10T10:54:28.467Z,23.15
2018-06-10T10:55:34.115Z,23.26
2018-06-10T10:56:38.801Z,23.11
2018-06-10T10:57:45.034Z,23.09
2018-06-10T10:58:54.816Z,23.50
2018-06-10T11:00:01.695Z,23.98
2018-06-10T11:01:09.025Z,23.72
2018-06-10T11:02:16.343Z,23.14
2018-06-10T11:03:23.797Z,23.22
2018-06-10T11:04:30.627Z,22.62
2018-06-10T11:05:38.173Z,22.35
2018-06-10T11:06:43.401Z,22.45
2018-06-10T11:07:52.962Z,22.31
2018-06-10T11:08:58.878Z,22.49
2018-06-10T11:10:10.239Z,22.64
2018-06-10T11:11:14.787Z,23.02
2018-06-10T11:12:21.360Z,23.40
2018-06-10T11:13:26.197Z,23.29
2018-06-10T11:14:30.810Z,23.39
2018-06-10T11:15:38.802Z,23.82
2018-06-10T11:16:46.648Z,23.41
2018-06-10T11:17:52.486Z,23.30
2018-06-10T11:19:02.354Z,23.40
2018-06-10T11:20:08.360Z,23.88
2018-06-10T11:21:24.325Z,24.19
2018-06-10T11:22:35.325Z,24.29
2018-06-10T11:23:40.925Z,24.68
2018-06-10T11:24:46.498Z,24.54
2018-06-10T11:25:53.002Z,24.34
2018-06-10T11:27:01.261Z,24.77
2018-06-10T11:28:07.942Z,23.92
2018-06-10T11:29:13.370Z,23.59
2018-06-10T11:30:19.731Z,23.65
2018-06-10T11:31:24.395Z,23.63
2018-06-10T11:32:31.336Z,23.40
2018-06-10T11:33:36.054Z,23.42
2018-06-10T11:34:42.165Z,23.64
2018-06-10T11:35:47.953Z,24.21
2018-06-10T11:36:53.840Z,24.65
2018-06-10T11:38:00.093Z,24.64
2018-06-10T11:39:06.920Z,24.69
2018-06-10T11:40:11.897Z,25.10
2018-06-10T11:41:16.544Z,25.40
2018-06-10T11:42:21.317Z,24.61
2018-06-10T11:43:27.015Z,23.79
2018-06-10T11:44:32.330Z,23.92
2018-06-10T11:45:39.010Z,24.66
2018-06-10T11:46:45.350Z,24.99
2018-06-10T11:47:50.717Z,24.47
2018-06-10T11:48:55.856Z,24.51
2018-06-10T11:50:00.462Z,24.79
2018-06-10T11:51:04.999Z,24.59
2018-06-10T11:52:09.606Z,24.48
2018-06-10T11:53:15.235Z,24.29
2018-06-10T11:54:20.451Z,23.97
2018-06-10T11:55:25.000Z,24.03
2018-06-10T11:56:30.361Z,23.88
2018-06-10T11:57:35.449Z,24.39
2018-06-10T11:58:40.040Z,24.67
2018-06-10T11:59:46.285Z,24.64
2018-06-10T12:00:50.852Z,24.84
2018-06-10T12:01:55.500Z,24.66
2018-06-10T12:03:00.075Z,24.67
2018-06-10T12:04:05.055Z,24.80
2018-06-10T12:05:09.781Z,24.37
2018-06-10T12:06:15.402Z,23.67
2018-06-10T12:07:21.019Z,24.32
2018-06-10T12:08:26.308Z,24.39
2018-06-10T12:09:32.491Z,24.30
2018-06-10T12:10:37.640Z,24.98
2018-06-10T12:11:43.238Z,25.25
2018-06-10T12:12:50.593Z,25.52
2018-06-10T12:13:56.900Z,24.96
2018-06-10T12:15:01.822Z,24.94
2018-06-10T12:16:07.239Z,25.54
2018-06-10T12:17:13.400Z,25.15
2018-06-10T12:18:20.164Z,24.92
2018-06-10T12:19:27.811Z,25.01
2018-06-10T12:20:35.276Z,25.38
2018-06-10T12:21:40.610Z,25.72
2018-06-10T12:22:48.825Z,26.10
2018-06-10T12:23:55.191Z,26.12
2018-06-10T12:25:00.703Z,25.42
2018-06-10T12:26:06.911Z,25.35
2018-06-10T12:27:13.297Z,25.21
2018-06-10T12:28:21.825Z,25.59
2018-06-10T12:29:27.581Z,25.80
2018-06-10T12:30:37.598Z,26.12
2018-06-10T12:31:43.246Z,26.37
2018-06-10T12:32:50.510Z,25.76
2018-06-10T12:33:58.339Z,25.89
2018-06-10T12:35:04.830Z,25.93
2018-06-10T12:36:12.772Z,25.74
2018-06-10T12:37:22.608Z,25.54
2018-06-10T12:38:29.264Z,25.95
2018-06-10T12:39:37.428Z,26.15
2018-06-10T12:40:50.043Z,26.26
2018-06-10T12:41:54.594Z,26.39
2018-06-10T12:43:01.123Z,26.55
2018-06-10T12:44:10.558Z,26.63
2018-06-10T12:45:17.396Z,26.45
2018-06-10T12:46:22.005Z,26.12
2018-06-10T12:47:28.211Z,25.27
2018-06-10T12:48:33.121Z,25.01
2018-06-10T12:49:38.347Z,24.66
2018-06-10T12:50:43.385Z,24.86
2018-06-10T12:51:50.467Z,25.50
2018-06-10T12:52:57.174Z,26.01
2018-06-10T12:54:07.225Z,26.10
2018-06-10T12:55:11.932Z,26.02
2018-06-10T12:56:20.522Z,26.15
2018-06-10T12:57:29.796Z,26.61
2018-06-10T12:58:35.835Z,26.33
2018-06-10T12:59:43.257Z,26.10
2018-06-10T13:00:51.085Z,26.38
2018-06-10T13:01:57.986Z,26.64
2018-06-10T13:03:03.646Z,26.49
2018-06-10T13:04:08.249Z,26.25
2018-06-10T13:05:15.252Z,26.33
2018-06-10T13:06:21.001Z,26.57
2018-06-10T13:07:27.820Z,26.59
2018-06-10T13:08:33.417Z,26.38
2018-06-10T13:09:41.763Z,26.67
2018-06-10T13:10:48.458Z,25.80
2018-06-10T13:11:53.074Z,24.92
2018-06-10T13:12:58.954Z,24.97
2018-06-10T13:14:06.501Z,25.02
2018-06-10T13:15:12.598Z,24.97
2018-06-10T13:16:18.123Z,25.11
2018-06-10T13:17:24.431Z,25.34
2018-06-10T13:18:30.830Z,25.92
2018-06-10T13:19:41.055Z,26.22
2018-06-10T13:20:51.359Z,26.07
2018-06-10T13:21:59.722Z,25.78
2018-06-10T13:23:05.612Z,26.27
2018-06-10T13:24:14.170Z,26.90
2018-06-10T13:25:22.185Z,27.34
2018-06-10T13:26:29.502Z,27.78
2018-06-10T13:27:34.794Z,27.87
2018-06-10T13:28:41.483Z,27.99
2018-06-10T13:29:48.720Z,27.98
2018-06-10T13:30:56.377Z,28.10
2018-06-10T13:32:09.016Z,28.21
2018-06-10T13:33:15.708Z,28.43
2018-06-10T13:34:36.934Z,28.70
2018-06-10T13:35:42.489Z,28.79
2018-06-10T13:36:48.387Z,28.42
2018-06-10T13:37:53.918Z,27.02
2018-06-10T13:39:01.132Z,26.21
2018-06-10T13:40:08.214Z,26.22
2018-06-10T13:41:14.373Z,26.35
2018-06-10T13:43:43.847Z,26.40
2018-06-10T13:44:55.667Z,26.42
2018-06-10T13:46:02.821Z,26.75
2018-06-10T13:47:09.999Z,26.82
2018-06-10T13:48:15.651Z,26.99
2018-06-10T13:49:20.728Z,26.79
2018-06-10T13:50:26.957Z,26.02
2018-06-10T13:51:32.538Z,25.21
2018-06-10T13:52:38.820Z,24.92
2018-06-10T13:53:47.361Z,24.86
2018-06-10T13:54:54.545Z,25.26
2018-06-10T13:56:02.232Z,25.29
2018-06-10T13:57:08.533Z,25.00
2018-06-10T13:58:17.502Z,25.42
2018-06-10T13:59:23.272Z,25.34
2018-06-10T14:00:28.727Z,24.95
2018-06-10T14:01:34.666Z,25.08
2018-06-10T14:02:42.729Z,25.15
2018-06-10T14:03:49.865Z,24.82
2018-06-10T14:04:58.693Z,24.59
2018-06-10T14:06:11.520Z,25.17
2018-06-10T14:07:25.607Z,25.33
2018-06-10T14:08:34.558Z,25.49
2018-06-10T14:09:51.265Z,26.02
2018-06-10T14:10:56.338Z,26.29
2018-06-10T14:12:05.634Z,25.99